»·PEaware :: UAL361 KLAS-KSFO

UAL361 :: KLAS-KSFO

FLIGHT INFORMATION

Flight Status: Arrived
Operator:
United Airlines
More flights by this operator :: More flights under this callsign
Pilot: John C. (18682)
Aircraft: AIRBUS A320
(A320)
More flights by this aircraft type
Origin: KLAS McCarran Intl
United States
Destination: KSFO San Francisco Intl
United States
More flights between these airports :: More routes between these airports
Route: SHEAD1 KENNO RUSME ALWYS2
File this flight plan on PilotEdge
Remarks:
Altitude:
(Current/Filed)
36,000ft
Speed:
(Current/Filed)
451kts
Departed: 15-May-19 06:25 PM
Arrived: 15-May-19 07:36 PM
Distance/Time
Traveled:
359nm/1:11
Distance/Time
To Go:
Arrived

Flight Plot

Page will automatically refresh every two minutes.

Flight plan parsing failed; only flown route is shown


Map Options




Map Legend


Flown Route
Filed Route
Departure Airport
Arrival Airport
Navaid (VOR, NDB)
Fix

Horizontal Profiles

Position Reports

Time Latitude Longitude Heading Altitude Ground
Speed
15-May-19 18:05 36.082870 -115.138788 224 2066ft 0kts
15-May-19 18:06 36.082870 -115.138788 224 2066ft 0kts
15-May-19 18:07 36.082870 -115.138788 224 2066ft 0kts
15-May-19 18:08 36.082870 -115.138788 224 2066ft 0kts
15-May-19 18:09 36.082870 -115.138788 224 2066ft 0kts
15-May-19 18:10 36.082870 -115.138788 224 2066ft 0kts
15-May-19 18:11 36.082870 -115.138788 224 2066ft 0kts
15-May-19 18:12 36.082870 -115.138788 224 2066ft 0kts
15-May-19 18:13 36.082870 -115.138788 224 2066ft 0kts
15-May-19 18:14 36.082870 -115.138788 224 2066ft 0kts
15-May-19 18:15 36.083155 -115.138436 224 2064ft 2kts
15-May-19 18:16 36.083412 -115.137843 303 2062ft 2kts
15-May-19 18:18 36.083212 -115.137703 350 2062ft 0kts
15-May-19 18:19 36.083212 -115.137703 350 2062ft 0kts
15-May-19 18:20 36.084325 -115.135122 105 2052ft 22kts
15-May-19 18:21 36.079317 -115.133796 179 2060ft 13kts
15-May-19 18:22 36.078271 -115.130540 89 2052ft 21kts
15-May-19 18:23 36.078237 -115.122810 103 2037ft 14kts
15-May-19 18:24 36.076436 -115.122151 269 2040ft 11kts
15-May-19 18:25 36.076735 -115.160425 267 3045ft 169kts
15-May-19 18:26 36.075550 -115.224927 256 5393ft 224kts
15-May-19 18:27 36.024669 -115.276671 201 7859ft 273kts
15-May-19 18:28 35.956701 -115.318852 223 10801ft 300kts
15-May-19 18:29 35.894579 -115.399859 240 12989ft 341kts
15-May-19 18:30 35.888051 -115.519065 267 15724ft 360kts
15-May-19 18:31 35.890419 -115.644295 266 18234ft 369kts
15-May-19 18:32 35.892314 -115.755191 265 20259ft 376kts
15-May-19 18:33 35.894411 -115.885202 265 22382ft 383kts
15-May-19 18:34 35.929789 -116.009995 309 24206ft 425kts
15-May-19 18:35 36.017451 -116.110896 309 25856ft 435kts
15-May-19 18:36 36.106367 -116.213568 309 27334ft 443kts
15-May-19 18:37 36.197080 -116.318578 309 28666ft 449kts
15-May-19 18:38 36.288562 -116.424834 309 29830ft 455kts
15-May-19 18:39 36.381197 -116.532761 309 31040ft 457kts
15-May-19 18:39 36.457738 -116.622227 308 32274ft 450kts
15-May-19 18:41 36.561589 -116.742934 312 33896ft 447kts
15-May-19 18:42 36.668060 -116.826850 319 35023ft 454kts
15-May-19 18:42 36.757781 -116.895126 319 35822ft 453kts
15-May-19 18:44 36.883030 -116.990737 319 35883ft 455kts
15-May-19 18:44 36.972987 -117.059610 319 35907ft 456kts
15-May-19 18:45 37.081635 -117.143069 320 35881ft 459kts
15-May-19 18:46 37.190633 -117.227069 320 35889ft 463kts
15-May-19 18:47 37.299631 -117.312973 315 35925ft 459kts
15-May-19 18:49 37.412391 -117.432320 311 35898ft 455kts
15-May-19 18:49 37.481708 -117.527835 289 35863ft 432kts
15-May-19 18:50 37.506382 -117.665951 269 35845ft 410kts
15-May-19 18:51 37.517953 -117.809298 268 35806ft 409kts
15-May-19 18:52 37.529366 -117.951394 269 35780ft 408kts
15-May-19 18:53 37.540634 -118.093765 268 35784ft 408kts
15-May-19 18:54 37.551695 -118.235722 269 35781ft 408kts
15-May-19 18:55 37.562576 -118.377588 269 35818ft 407kts
15-May-19 18:56 37.573349 -118.520360 268 35925ft 408kts
15-May-19 18:57 37.583532 -118.657618 268 35981ft 408kts
15-May-19 18:58 37.594065 -118.801824 268 35999ft 408kts
15-May-19 18:59 37.604299 -118.944301 268 36003ft 406kts
15-May-19 19:00 37.614301 -119.085977 267 36002ft 403kts
15-May-19 19:01 37.624054 -119.226518 267 35967ft 401kts
15-May-19 19:02 37.633607 -119.366597 267 35963ft 401kts
15-May-19 19:03 37.643003 -119.506849 267 35975ft 400kts
15-May-19 19:04 37.652193 -119.646524 267 35904ft 401kts
15-May-19 19:05 37.661061 -119.783757 267 35650ft 402kts
15-May-19 19:06 37.669959 -119.923947 267 34155ft 400kts
15-May-19 19:07 37.678779 -120.065598 267 31311ft 409kts
15-May-19 19:08 37.687458 -120.207657 266 29069ft 401kts
15-May-19 19:09 37.695729 -120.345862 266 27274ft 382kts
15-May-19 19:10 37.690791 -120.476709 254 26616ft 371kts
15-May-19 19:11 37.675852 -120.604507 254 24375ft 367kts
15-May-19 19:12 37.662638 -120.716651 253 22524ft 359kts
15-May-19 19:13 37.648334 -120.836406 253 20344ft 336kts
15-May-19 19:14 37.634814 -120.951631 259 18423ft 335kts
15-May-19 19:15 37.653989 -121.069524 275 16586ft 341kts
15-May-19 19:16 37.675065 -121.183205 275 14567ft 324kts
15-May-19 19:17 37.694049 -121.286303 275 13194ft 294kts
15-May-19 19:18 37.712420 -121.386677 276 11585ft 295kts
15-May-19 19:19 37.730798 -121.487372 276 10163ft 288kts
15-May-19 19:20 37.747482 -121.578762 276 9841ft 254kts
15-May-19 19:21 37.763278 -121.665855 276 9319ft 253kts
15-May-19 19:22 37.779046 -121.753131 276 8766ft 256kts
15-May-19 19:23 37.794884 -121.841289 276 8255ft 255kts
15-May-19 19:24 37.810498 -121.928503 276 7684ft 245kts
15-May-19 19:25 37.824689 -122.008067 276 7087ft 225kts
15-May-19 19:26 37.838514 -122.085706 276 6132ft 227kts
15-May-19 19:27 37.852444 -122.164188 276 5173ft 229kts
15-May-19 19:28 37.841077 -122.225753 205 4638ft 175kts
15-May-19 19:29 37.798794 -122.253705 203 3691ft 173kts
15-May-19 19:30 37.757834 -122.280813 203 2811ft 154kts
15-May-19 19:31 37.724125 -122.303081 202 2099ft 127kts
15-May-19 19:32 37.692810 -122.323816 202 1442ft 127kts
15-May-19 19:33 37.661704 -122.344419 202 771ft 126kts
15-May-19 19:34 37.631021 -122.364705 202 126ft 125kts
15-May-19 19:35 37.616556 -122.374935 245 19ft 15kts
15-May-19 19:36 37.616705 -122.378049 280 28ft 14kts
15-May-19 19:37 37.619309 -122.381182 297 32ft 14kts
15-May-19 19:38 37.619942 -122.385382 203 32ft 15kts
15-May-19 19:39 37.618780 -122.385187 154 32ft 0kts
15-May-19 19:40 37.618780 -122.385187 154 32ft 0kts

Navigation Log

Ident Type
Flight plan parsing failed, navigation log unavailable